Terminal Aerodrome Forecast
Issued by NWS

Home | Current Version | Previous Version | Text Only | Print | Product List | Glossary On
Versions: 1 2 3 4 5 6 7 8 9 10 11 12 13 14 15 16 17 18 19 20 21 22 23 24 25 26 27 28 29 30 31 32 33 34 35 36 37 38 39 40 41 42 43 44 45 46 47 48 49 50
000
FTUS42 KMFL 240542
TAFOPF
TAF
KOPF 240542Z 2406/2506 17007KT P6SM BKN250
     FM241400 20015G25KT P6SM BKN050
     FM241800 21020KT P6SM VCSH SCT030 BKN045
     FM250000 21007KT P6SM SHRA BKN040 PROB30 2500/2506 TSRA
      BKN035CB=

USA.gov is the U.S. government's official web portal to all federal, state and local government web resources and services.